createdAt,value
2022-12-29T00:00:56.889Z,1.88
2022-12-29T00:03:23.857Z,1.63
2022-12-29T00:05:58.545Z,1.58
2022-12-29T00:08:40.389Z,1.65
2022-12-29T00:11:13.233Z,1.70
2022-12-29T00:13:59.545Z,1.33
2022-12-29T00:16:28.227Z,1.63
2022-12-29T00:18:55.197Z,2.03
2022-12-29T00:21:43.689Z,1.48
2022-12-29T00:24:27.706Z,1.30
2022-12-29T00:27:16.661Z,1.33
2022-12-29T00:30:03.780Z,1.17
2022-12-29T00:35:27.536Z,1.08
2022-12-29T00:38:16.704Z,0.93
2022-12-29T00:41:02.100Z,1.10
2022-12-29T00:43:47.724Z,0.98
2022-12-29T00:49:05.643Z,0.95
2022-12-29T00:51:32.625Z,0.63
2022-12-29T00:53:59.513Z,0.80
2022-12-29T00:56:26.488Z,1.08
2022-12-29T00:58:53.363Z,0.95
2022-12-29T01:01:20.411Z,0.90
2022-12-29T01:03:47.308Z,1.15
2022-12-29T01:06:15.152Z,1.20
2022-12-29T01:08:42.054Z,1.15
2022-12-29T01:11:13.238Z,1.23
2022-12-29T01:13:42.131Z,0.82
2022-12-29T01:16:09.013Z,1.20
2022-12-29T01:18:36.009Z,0.85
2022-12-29T01:21:06.347Z,1.10
2022-12-29T01:23:34.938Z,0.88
2022-12-29T01:26:13.760Z,1.02
2022-12-29T01:28:42.463Z,1.02
2022-12-29T01:31:11.219Z,1.00
2022-12-29T01:33:38.570Z,0.82
2022-12-29T01:36:15.279Z,0.80
2022-12-29T01:38:43.464Z,1.08
2022-12-29T01:41:13.146Z,1.00
2022-12-29T01:43:45.579Z,1.25
2022-12-29T01:46:50.028Z,0.75
2022-12-29T01:49:28.488Z,0.95
2022-12-29T01:52:03.491Z,1.40
2022-12-29T01:54:41.797Z,1.95
2022-12-29T01:57:16.828Z,1.35
2022-12-29T01:59:55.773Z,1.88
2022-12-29T02:02:23.213Z,1.23
2022-12-29T02:04:50.241Z,1.55
2022-12-29T02:07:22.525Z,1.23
2022-12-29T02:09:52.743Z,1.70
2022-12-29T02:12:23.564Z,1.38
2022-12-29T02:15:00.303Z,1.35
2022-12-29T02:18:01.969Z,1.40
2022-12-29T02:20:29.577Z,2.00
2022-12-29T02:23:50.155Z,1.50
2022-12-29T02:27:05.539Z,1.52
2022-12-29T02:29:59.367Z,1.23
2022-12-29T02:32:37.892Z,1.45
2022-12-29T02:35:43.022Z,1.90
2022-12-29T02:38:57.195Z,1.40
2022-12-29T02:41:32.473Z,1.20
2022-12-29T02:44:10.622Z,1.50
2022-12-29T02:46:59.838Z,1.20
2022-12-29T02:49:49.172Z,1.00
2022-12-29T02:52:24.326Z,0.98
2022-12-29T02:57:21.441Z,1.10
2022-12-29T02:59:58.324Z,1.10
2022-12-29T03:02:57.601Z,1.02
2022-12-29T03:06:00.717Z,1.30
2022-12-29T03:08:42.705Z,1.23
2022-12-29T03:11:33.460Z,1.02
2022-12-29T03:14:51.728Z,1.10
2022-12-29T03:17:36.561Z,1.10
2022-12-29T03:20:10.849Z,1.20
2022-12-29T03:22:47.918Z,1.08
2022-12-29T03:25:34.384Z,1.13
2022-12-29T03:28:11.594Z,1.20
2022-12-29T03:30:44.657Z,1.00
2022-12-29T03:33:19.655Z,1.00
2022-12-29T03:35:51.607Z,1.10
2022-12-29T03:38:31.254Z,0.90
2022-12-29T03:41:01.485Z,1.20
2022-12-29T03:43:31.173Z,1.10
2022-12-29T03:45:58.174Z,1.30
2022-12-29T03:48:25.179Z,1.20
2022-12-29T03:50:54.935Z,1.20
2022-12-29T03:53:23.446Z,1.08
2022-12-29T03:55:50.780Z,1.00
2022-12-29T03:58:17.791Z,0.70
2022-12-29T04:00:55.955Z,1.05
2022-12-29T04:03:23.420Z,1.20
2022-12-29T04:05:51.230Z,1.40
2022-12-29T04:08:18.689Z,1.05
2022-12-29T04:10:45.659Z,1.17
2022-12-29T04:13:14.498Z,1.13
2022-12-29T04:15:43.427Z,1.17
2022-12-29T04:18:11.134Z,0.90
2022-12-29T04:20:58.190Z,1.30
2022-12-29T04:23:25.231Z,1.02
2022-12-29T04:25:52.366Z,1.13
2022-12-29T04:28:19.465Z,1.20
2022-12-29T04:30:49.829Z,1.10
2022-12-29T04:33:23.637Z,1.30
2022-12-29T04:35:50.682Z,1.13
2022-12-29T04:38:17.953Z,1.58
2022-12-29T04:40:46.190Z,1.25
2022-12-29T04:43:14.545Z,1.38
2022-12-29T04:46:01.799Z,1.00
2022-12-29T04:48:35.686Z,1.20
2022-12-29T04:51:25.476Z,1.33
2022-12-29T04:53:52.837Z,1.00
2022-12-29T04:56:19.763Z,1.10
2022-12-29T04:58:47.733Z,1.00
2022-12-29T05:01:15.140Z,1.30
2022-12-29T05:03:42.156Z,1.05
2022-12-29T05:06:09.501Z,0.90
2022-12-29T05:08:36.487Z,1.13
2022-12-29T05:11:03.735Z,0.90
2022-12-29T05:13:30.635Z,0.95
2022-12-29T05:15:58.058Z,1.00
2022-12-29T05:18:25.334Z,0.93
2022-12-29T05:20:53.519Z,0.80
2022-12-29T05:23:21.851Z,1.08
2022-12-29T05:28:46.085Z,0.70
2022-12-29T05:31:17.726Z,1.05
2022-12-29T05:33:45.311Z,1.02
2022-12-29T05:36:13.632Z,0.70
2022-12-29T05:38:46.094Z,0.88
2022-12-29T05:41:13.620Z,0.90
2022-12-29T05:43:59.718Z,0.68
2022-12-29T05:46:52.887Z,0.90
2022-12-29T05:49:40.146Z,0.70
2022-12-29T05:52:19.988Z,0.93
2022-12-29T05:54:47.740Z,0.88
2022-12-29T05:57:17.956Z,0.80
2022-12-29T05:59:50.523Z,0.77
2022-12-29T06:02:17.664Z,0.70
2022-12-29T06:04:44.676Z,0.82
2022-12-29T06:07:11.631Z,1.10
2022-12-29T06:09:44.083Z,1.08
2022-12-29T06:12:11.198Z,0.95
2022-12-29T06:14:40.060Z,0.88
2022-12-29T06:17:07.430Z,0.80
2022-12-29T06:19:35.073Z,0.88
2022-12-29T06:22:02.899Z,0.77
2022-12-29T06:24:33.244Z,0.80
2022-12-29T06:27:00.157Z,0.90
2022-12-29T06:29:28.682Z,0.60
2022-12-29T06:31:58.933Z,0.70
2022-12-29T06:34:26.590Z,0.90
2022-12-29T06:36:53.574Z,0.65
2022-12-29T06:39:20.476Z,0.65
2022-12-29T06:42:00.554Z,0.82
2022-12-29T06:44:45.806Z,0.95
2022-12-29T06:47:13.129Z,0.70
2022-12-29T06:49:40.245Z,0.95
2022-12-29T06:52:12.498Z,0.70
2022-12-29T06:54:39.711Z,0.90
2022-12-29T06:57:06.557Z,0.90
2022-12-29T06:59:34.215Z,0.90
2022-12-29T07:02:03.014Z,0.75
2022-12-29T07:04:30.311Z,0.88
2022-12-29T07:06:57.197Z,0.98
2022-12-29T07:09:24.093Z,0.88
2022-12-29T07:11:51.381Z,0.70
2022-12-29T07:14:18.282Z,0.70
2022-12-29T07:16:45.286Z,0.77
2022-12-29T07:19:12.397Z,0.55
2022-12-29T07:21:39.280Z,0.90
2022-12-29T07:24:06.743Z,0.70
2022-12-29T07:26:36.498Z,0.80
2022-12-29T07:29:06.785Z,1.00
2022-12-29T07:31:33.854Z,0.93
2022-12-29T07:37:30.597Z,1.63
2022-12-29T07:39:57.700Z,0.95
2022-12-29T07:42:24.562Z,1.42
2022-12-29T07:44:53.421Z,1.25
2022-12-29T07:47:28.144Z,0.85
2022-12-29T07:49:55.067Z,0.68
2022-12-29T07:52:21.970Z,1.00
2022-12-29T07:54:48.886Z,0.60
2022-12-29T07:57:15.781Z,0.70
2022-12-29T07:59:42.742Z,0.73
2022-12-29T08:02:12.670Z,0.75
2022-12-29T08:09:14.810Z,0.82
2022-12-29T08:11:45.519Z,1.00
2022-12-29T08:14:13.912Z,0.85
2022-12-29T08:16:40.797Z,1.52
2022-12-29T08:19:07.715Z,1.30
2022-12-29T08:21:34.661Z,1.40
2022-12-29T08:24:10.548Z,1.45
2022-12-29T08:26:40.448Z,1.80
2022-12-29T08:29:07.335Z,1.20
2022-12-29T08:31:35.334Z,1.40
2022-12-29T08:34:04.132Z,1.58
2022-12-29T08:36:32.221Z,1.38
2022-12-29T08:38:59.197Z,1.40
2022-12-29T08:41:26.135Z,1.40
2022-12-29T08:43:53.207Z,1.55
2022-12-29T08:46:20.475Z,1.40
2022-12-29T08:48:47.447Z,1.20
2022-12-29T08:51:14.832Z,1.20
2022-12-29T08:53:41.714Z,1.38
2022-12-29T08:56:10.801Z,1.10
2022-12-29T08:59:03.780Z,1.02
2022-12-29T09:01:31.962Z,1.50
2022-12-29T09:04:16.527Z,1.70
2022-12-29T09:06:45.423Z,1.40
2022-12-29T09:09:13.520Z,1.50
2022-12-29T09:11:40.507Z,1.30
2022-12-29T09:14:07.439Z,1.20
2022-12-29T09:16:35.362Z,1.85
2022-12-29T09:19:03.585Z,1.20
2022-12-29T09:21:30.810Z,1.80
2022-12-29T09:23:57.803Z,1.00
2022-12-29T09:26:24.743Z,1.27
2022-12-29T09:28:51.641Z,0.90
2022-12-29T09:31:18.563Z,0.95
2022-12-29T09:33:45.625Z,1.10
2022-12-29T09:36:12.468Z,1.20
2022-12-29T09:38:39.763Z,1.10
2022-12-29T09:41:30.368Z,0.95
2022-12-29T09:44:55.422Z,1.05
2022-12-29T09:47:24.580Z,0.95
2022-12-29T09:50:05.558Z,1.27
2022-12-29T09:52:48.483Z,1.55
2022-12-29T09:55:23.576Z,1.38
2022-12-29T09:58:06.302Z,1.38
2022-12-29T10:00:55.664Z,1.20
2022-12-29T10:03:28.848Z,1.02
2022-12-29T10:06:25.594Z,1.27
2022-12-29T10:09:03.856Z,1.33
2022-12-29T10:12:17.778Z,1.20
2022-12-29T10:15:25.389Z,1.20
2022-12-29T10:18:37.576Z,1.30
2022-12-29T10:21:21.871Z,1.63
2022-12-29T10:23:54.015Z,1.00
2022-12-29T10:26:27.451Z,2.00
2022-12-29T10:29:28.848Z,1.40
2022-12-29T10:32:04.130Z,1.55
2022-12-29T10:34:43.519Z,1.50
2022-12-29T10:37:49.911Z,1.27
2022-12-29T10:40:43.427Z,1.30
2022-12-29T10:43:29.927Z,1.10
2022-12-29T10:46:04.000Z,1.42
2022-12-29T10:48:35.842Z,1.63
2022-12-29T10:51:08.370Z,1.05
2022-12-29T10:53:50.615Z,0.82
2022-12-29T10:56:35.125Z,1.30
2022-12-29T10:59:31.182Z,1.02
2022-12-29T11:02:16.599Z,1.02
2022-12-29T11:05:11.523Z,1.05
2022-12-29T11:07:39.065Z,1.00
2022-12-29T11:10:41.835Z,1.38
2022-12-29T11:13:25.241Z,1.17
2022-12-29T11:15:53.142Z,0.80
2022-12-29T11:18:32.879Z,1.05
2022-12-29T11:21:03.795Z,0.98
2022-12-29T11:23:41.393Z,1.02
2022-12-29T11:26:11.212Z,1.35
2022-12-29T11:28:40.856Z,0.90
2022-12-29T11:31:09.625Z,0.93
2022-12-29T11:33:40.430Z,1.33
2022-12-29T11:36:18.284Z,0.63
2022-12-29T11:38:53.231Z,1.40
2022-12-29T11:41:30.154Z,0.70
2022-12-29T11:44:06.754Z,1.30
2022-12-29T11:46:39.342Z,1.27
2022-12-29T11:49:07.203Z,1.70
2022-12-29T11:51:50.131Z,1.60
2022-12-29T11:54:34.422Z,1.17
2022-12-29T11:57:16.705Z,1.08
2022-12-29T11:59:58.482Z,0.95
2022-12-29T12:02:47.793Z,1.10
2022-12-29T12:05:24.599Z,0.90
2022-12-29T12:08:10.682Z,1.25
2022-12-29T12:10:57.680Z,1.00
2022-12-29T12:13:37.912Z,1.40
2022-12-29T12:16:26.854Z,1.00
2022-12-29T12:19:33.683Z,1.40
2022-12-29T12:22:21.002Z,1.58
2022-12-29T12:25:03.965Z,1.13
2022-12-29T12:27:42.133Z,1.02
2022-12-29T12:30:21.213Z,1.30
2022-12-29T12:32:57.153Z,1.48
2022-12-29T12:35:50.284Z,1.33
2022-12-29T12:38:22.913Z,1.00
2022-12-29T12:41:06.405Z,1.23
2022-12-29T12:43:56.106Z,1.30
2022-12-29T12:46:47.129Z,0.80
2022-12-29T12:49:51.909Z,1.17
2022-12-29T12:53:26.054Z,0.90
2022-12-29T12:56:33.921Z,1.38
2022-12-29T12:59:27.701Z,1.02
2022-12-29T13:02:09.998Z,1.10
2022-12-29T13:05:07.289Z,0.88
2022-12-29T13:08:14.254Z,1.00
2022-12-29T13:11:09.817Z,1.45
2022-12-29T13:14:00.220Z,1.40
2022-12-29T13:17:51.343Z,0.95
2022-12-29T13:20:50.781Z,1.17
2022-12-29T13:23:32.990Z,1.20
2022-12-29T13:26:09.973Z,1.60
2022-12-29T13:29:31.729Z,1.27
2022-12-29T13:32:29.055Z,1.58
2022-12-29T13:35:33.124Z,1.30
2022-12-29T13:38:27.145Z,1.15
2022-12-29T13:41:10.943Z,1.17
2022-12-29T13:44:20.947Z,0.95
2022-12-29T13:46:50.288Z,1.58
2022-12-29T13:49:25.360Z,1.40
2022-12-29T13:55:11.434Z,1.27
2022-12-29T13:58:23.186Z,1.40
2022-12-29T14:01:04.035Z,1.60
2022-12-29T14:03:50.545Z,1.73
2022-12-29T14:06:23.783Z,1.67
2022-12-29T14:09:05.899Z,1.50
2022-12-29T14:11:40.570Z,1.52
2022-12-29T14:14:24.291Z,1.92
2022-12-29T14:16:53.384Z,1.48
2022-12-29T14:19:31.377Z,1.60
2022-12-29T14:22:03.269Z,1.30
2022-12-29T14:24:35.964Z,1.00
2022-12-29T14:27:12.022Z,1.38
2022-12-29T14:29:41.974Z,1.52
2022-12-29T14:32:27.220Z,1.83
2022-12-29T14:35:22.058Z,1.60
2022-12-29T14:38:07.509Z,1.30
2022-12-29T14:40:35.682Z,1.42
2022-12-29T14:43:12.153Z,1.25
2022-12-29T14:45:43.287Z,1.45
2022-12-29T14:48:45.543Z,1.00
2022-12-29T14:51:36.981Z,1.38
2022-12-29T14:54:32.713Z,1.65
2022-12-29T14:57:07.692Z,1.35
2022-12-29T14:59:36.705Z,1.65
2022-12-29T15:02:19.810Z,1.30
2022-12-29T15:04:48.949Z,1.30
2022-12-29T15:07:20.261Z,1.38
2022-12-29T15:10:00.981Z,1.20
2022-12-29T15:12:48.306Z,1.00
2022-12-29T15:15:26.279Z,0.82
2022-12-29T15:17:53.984Z,1.33
2022-12-29T15:20:29.792Z,1.42
2022-12-29T15:23:03.167Z,2.33
2022-12-29T15:25:31.942Z,1.30
2022-12-29T15:28:05.456Z,1.30
2022-12-29T15:30:33.916Z,1.42
2022-12-29T15:33:00.941Z,1.40
2022-12-29T15:35:37.676Z,1.63
2022-12-29T15:38:17.762Z,1.30
2022-12-29T15:40:46.220Z,0.95
2022-12-29T15:43:34.566Z,1.75
2022-12-29T15:46:03.067Z,1.40
2022-12-29T15:48:31.708Z,0.90
2022-12-29T15:51:00.424Z,1.30
2022-12-29T15:53:33.035Z,1.30
2022-12-29T15:56:11.735Z,1.55
2022-12-29T15:58:47.478Z,1.30
2022-12-29T16:01:36.408Z,1.30
2022-12-29T16:04:09.993Z,0.93
2022-12-29T16:06:46.185Z,1.00
2022-12-29T16:09:19.665Z,1.40
2022-12-29T16:11:57.112Z,1.20
2022-12-29T16:14:45.914Z,1.60
2022-12-29T16:17:20.243Z,1.20
2022-12-29T16:19:55.884Z,1.45
2022-12-29T16:22:48.982Z,1.20
2022-12-29T16:25:36.668Z,1.30
2022-12-29T16:28:18.161Z,1.20
2022-12-29T16:30:45.242Z,1.42
2022-12-29T16:33:47.135Z,1.90
2022-12-29T16:36:40.653Z,1.23
2022-12-29T16:39:23.027Z,1.50
2022-12-29T16:41:51.186Z,1.42
2022-12-29T16:44:27.473Z,1.23
2022-12-29T16:47:11.381Z,1.40
2022-12-29T16:49:46.561Z,1.30
2022-12-29T16:52:32.792Z,1.50
2022-12-29T16:55:04.522Z,1.27
2022-12-29T16:57:37.163Z,1.33
2022-12-29T17:00:18.763Z,1.60
2022-12-29T17:02:46.548Z,1.85
2022-12-29T17:05:19.262Z,1.00
2022-12-29T17:07:47.381Z,1.73
2022-12-29T17:10:15.719Z,1.42
2022-12-29T17:12:46.203Z,1.00
2022-12-29T17:15:35.111Z,0.85
2022-12-29T17:18:02.331Z,1.17
2022-12-29T17:20:31.795Z,0.90
2022-12-29T17:23:00.218Z,0.90
2022-12-29T17:25:34.994Z,1.52
2022-12-29T17:28:25.675Z,1.45
2022-12-29T17:31:03.215Z,1.45
2022-12-29T17:33:38.219Z,1.95
2022-12-29T17:36:05.488Z,1.30
2022-12-29T17:38:36.248Z,1.50
2022-12-29T17:41:03.923Z,1.20
2022-12-29T17:43:36.691Z,1.55
2022-12-29T17:46:08.386Z,1.90
2022-12-29T17:48:36.164Z,2.20
2022-12-29T17:51:03.271Z,1.60
2022-12-29T17:53:30.934Z,1.50
2022-12-29T17:55:58.127Z,1.27
2022-12-29T17:58:31.734Z,1.35
2022-12-29T18:01:02.130Z,2.10
2022-12-29T18:03:35.190Z,2.00
2022-12-29T18:06:06.518Z,2.50
2022-12-29T18:08:35.997Z,1.92
2022-12-29T18:11:04.076Z,2.30
2022-12-29T18:13:45.632Z,2.40
2022-12-29T18:16:14.764Z,2.63
2022-12-29T18:18:41.770Z,1.73
2022-12-29T18:21:20.153Z,1.45
2022-12-29T18:23:48.332Z,1.77
2022-12-29T18:26:23.970Z,1.40
2022-12-29T18:28:58.743Z,1.15
2022-12-29T18:31:29.272Z,3.30
2022-12-29T18:33:59.331Z,1.50
2022-12-29T18:36:26.893Z,1.30
2022-12-29T18:38:54.672Z,1.48
2022-12-29T18:41:29.811Z,1.40
2022-12-29T18:46:27.199Z,1.73
2022-12-29T18:48:54.612Z,1.38
2022-12-29T18:51:26.002Z,2.40
2022-12-29T18:53:54.105Z,1.77
2022-12-29T18:56:22.672Z,1.92
2022-12-29T18:58:50.883Z,1.88
2022-12-29T19:01:24.937Z,1.80
2022-12-29T19:03:52.691Z,1.67
2022-12-29T19:06:21.193Z,2.10
2022-12-29T19:08:48.222Z,2.10
2022-12-29T19:11:15.224Z,2.20
2022-12-29T19:13:42.274Z,1.77
2022-12-29T19:16:20.670Z,1.77
2022-12-29T19:18:58.549Z,2.10
2022-12-29T19:21:34.583Z,2.22
2022-12-29T19:24:01.479Z,1.80
2022-12-29T19:26:34.362Z,1.67
2022-12-29T19:29:01.872Z,2.00
2022-12-29T19:31:29.171Z,1.63
2022-12-29T19:33:56.199Z,1.90
2022-12-29T19:36:23.410Z,2.22
2022-12-29T19:38:50.489Z,2.20
2022-12-29T19:41:17.482Z,1.73
2022-12-29T19:43:44.518Z,2.53
2022-12-29T19:46:16.962Z,2.30
2022-12-29T19:48:44.523Z,1.80
2022-12-29T19:51:18.325Z,2.20
2022-12-29T19:53:46.909Z,2.60
2022-12-29T19:56:17.336Z,2.38
2022-12-29T19:58:47.548Z,2.75
2022-12-29T20:01:24.720Z,2.95
2022-12-29T20:03:52.481Z,3.20
2022-12-29T20:06:19.952Z,3.70
2022-12-29T20:08:46.905Z,3.97
2022-12-29T20:11:17.134Z,3.25
2022-12-29T20:13:44.996Z,3.33
2022-12-29T20:16:18.611Z,4.05
2022-12-29T20:18:47.104Z,3.30
2022-12-29T20:21:21.691Z,3.78
2022-12-29T20:23:51.404Z,3.92
2022-12-29T20:26:29.133Z,3.22
2022-12-29T20:28:58.131Z,2.80
2022-12-29T20:31:32.831Z,4.13
2022-12-29T20:34:00.964Z,2.90
2022-12-29T20:36:32.384Z,2.95
2022-12-29T20:39:05.200Z,2.40
2022-12-29T20:41:32.276Z,2.67
2022-12-29T20:43:59.919Z,3.00
2022-12-29T20:46:34.094Z,2.50
2022-12-29T20:49:07.949Z,2.25
2022-12-29T20:52:03.691Z,2.63
2022-12-29T20:54:22.181Z,2.95
2022-12-29T20:56:50.233Z,2.63
2022-12-29T20:59:27.425Z,2.17
2022-12-29T21:01:56.124Z,2.15
2022-12-29T21:04:23.289Z,2.47
2022-12-29T21:06:50.123Z,2.78
2022-12-29T21:09:17.110Z,2.10
2022-12-29T21:11:44.005Z,2.20
2022-12-29T21:14:10.928Z,2.00
2022-12-29T21:16:38.367Z,2.58
2022-12-29T21:19:05.613Z,1.80
2022-12-29T21:21:32.576Z,1.67
2022-12-29T21:24:05.455Z,2.92
2022-12-29T21:26:35.774Z,2.83
2022-12-29T21:29:05.857Z,2.85
2022-12-29T21:31:35.676Z,1.17
2022-12-29T21:34:05.175Z,1.20
2022-12-29T21:36:33.134Z,1.00
2022-12-29T21:39:03.345Z,1.52
2022-12-29T21:41:31.156Z,2.05
2022-12-29T21:44:23.526Z,1.98
2022-12-29T21:46:50.474Z,2.17
2022-12-29T21:49:17.469Z,2.35
2022-12-29T21:51:50.318Z,1.25
2022-12-29T21:54:47.410Z,1.50
2022-12-29T21:57:40.986Z,3.00
2022-12-29T22:00:28.916Z,1.70
2022-12-29T22:03:22.032Z,2.33
2022-12-29T22:06:09.752Z,1.77
2022-12-29T22:08:56.651Z,1.17
2022-12-29T22:11:42.427Z,2.63
2022-12-29T22:14:09.722Z,2.33
2022-12-29T22:16:36.874Z,1.20
2022-12-29T22:19:04.995Z,1.70
2022-12-29T22:21:31.955Z,1.60
2022-12-29T22:24:00.537Z,1.15
2022-12-29T22:26:27.704Z,1.20
2022-12-29T22:28:54.842Z,1.73
2022-12-29T22:31:32.677Z,1.88
2022-12-29T22:34:03.885Z,1.50
2022-12-29T22:36:32.364Z,1.85
2022-12-29T22:38:59.709Z,3.95
2022-12-29T22:41:26.788Z,3.05
2022-12-29T22:43:54.640Z,3.28
2022-12-29T22:46:21.907Z,3.08
2022-12-29T22:48:49.106Z,3.20
2022-12-29T22:51:16.017Z,2.83
2022-12-29T22:53:42.920Z,1.63
2022-12-29T22:56:13.426Z,1.70
2022-12-29T22:58:46.597Z,0.90
2022-12-29T23:01:16.976Z,0.95
2022-12-29T23:03:44.698Z,1.13
2022-12-29T23:06:15.960Z,1.00
2022-12-29T23:08:44.570Z,1.30
2022-12-29T23:11:13.456Z,0.80
2022-12-29T23:13:41.621Z,0.77
2022-12-29T23:16:08.884Z,0.90
2022-12-29T23:18:36.867Z,0.95
2022-12-29T23:21:04.145Z,0.77
2022-12-29T23:23:50.084Z,0.90
2022-12-29T23:26:45.146Z,1.02
2022-12-29T23:29:16.512Z,0.85
2022-12-29T23:31:44.131Z,0.98
2022-12-29T23:34:14.089Z,1.25
2022-12-29T23:36:41.651Z,1.00
2022-12-29T23:39:17.968Z,0.75
2022-12-29T23:41:44.978Z,0.90
2022-12-29T23:44:11.853Z,1.33
2022-12-29T23:46:40.018Z,1.00
2022-12-29T23:49:09.127Z,0.80
2022-12-29T23:51:36.160Z,0.90
2022-12-29T23:54:03.494Z,0.70
2022-12-29T23:56:30.389Z,1.13
2022-12-29T23:58:57.342Z,0.95
